Terminal Aerodrome Forecast
Issued by NWS

Home | Current Version | Previous Version | Text Only | Print | Product List | Glossary On
Versions: 1 2 3 4 5 6 7 8 9 10 11 12 13 14 15 16 17 18 19 20 21 22 23 24 25 26 27 28 29 30 31 32 33
972
FTUS44 KLIX 261737
TAFHDC
TAF
KHDC 261737Z 2618/2718 16009KT P6SM SCT035
     FM262000 16010KT P6SM FEW030
     FM270700 14004KT P6SM BKN012
     FM271200 11005KT P6SM OVC015
     FM271400 14008KT P6SM SCT020=

USA.gov is the U.S. government's official web portal to all federal, state and local government web resources and services.